»·PEaware :: N363TB KPSP-KSNA

N363TB :: KPSP-KSNA

FLIGHT INFORMATION

Flight Status: Arrived
Operator: Privately registered:
United States
More flights under this callsign
Pilot: Anonymous 10623 (10623)
Aircraft: SHORTS 360 SD3-60
(SH36)
More flights by this aircraft type
Origin: KPSP Palm Springs Intl
United States
Destination: KSNA John Wayne-Orange Co
United States
More flights between these airports :: More routes between these airports
Route: CATH1 PSP V388 DEWAY FRETS KAYOH7
File this flight plan on PilotEdge
Remarks: TEC route PSPP8B
Altitude:
(Current/Filed)
12,000ft
Speed:
(Current/Filed)
200kts
Departed: 26-Dec-20 03:38 PM
Arrived: 26-Dec-20 04:16 PM
Distance/Time
Traveled:
68nm/0:38
Distance/Time
To Go:
Arrived

Flight Plot

Page will automatically refresh every two minutes.

Flight plan parsing failed; only flown route is shown


Map Options




Map Legend


Flown Route
Filed Route
Departure Airport
Arrival Airport
Navaid (VOR, NDB)
Fix

Horizontal Profiles

Position Reports

Time Latitude Longitude Heading Altitude Ground
Speed
26-Dec-20 15:01 33.821231 -116.507711 45 487ft 0kts
26-Dec-20 15:02 33.821231 -116.507711 45 487ft 0kts
26-Dec-20 15:03 33.821231 -116.507711 45 487ft 0kts
26-Dec-20 15:04 33.821231 -116.507711 45 487ft 0kts
26-Dec-20 15:05 33.821231 -116.507711 45 487ft 0kts
26-Dec-20 15:06 33.821231 -116.507711 45 487ft 0kts
26-Dec-20 15:07 33.821231 -116.507711 45 487ft 0kts
26-Dec-20 15:08 33.821231 -116.507711 45 487ft 0kts
26-Dec-20 15:09 33.821231 -116.507711 45 487ft 0kts
26-Dec-20 15:10 33.821231 -116.507711 45 487ft 0kts
26-Dec-20 15:11 33.821231 -116.507711 45 487ft 0kts
26-Dec-20 15:12 33.821231 -116.507711 45 487ft 0kts
26-Dec-20 15:13 33.821231 -116.507711 45 487ft 0kts
26-Dec-20 15:14 33.821231 -116.507711 45 487ft 0kts
26-Dec-20 15:15 33.821231 -116.507711 45 487ft 0kts
26-Dec-20 15:16 33.821231 -116.507711 45 487ft 0kts
26-Dec-20 15:17 33.821231 -116.507711 45 487ft 0kts
26-Dec-20 15:18 33.820995 -116.507961 39 487ft 2kts
26-Dec-20 15:19 33.821050 -116.508230 150 488ft 0kts
26-Dec-20 15:20 33.821046 -116.508228 150 488ft 0kts
26-Dec-20 15:21 33.820803 -116.508059 147 488ft 6kts
26-Dec-20 15:22 33.820949 -116.506110 359 488ft 14kts
26-Dec-20 15:23 33.822626 -116.504820 50 488ft 0kts
26-Dec-20 15:24 33.822626 -116.504820 50 488ft 0kts
26-Dec-20 15:25 33.822626 -116.504820 50 488ft 0kts
26-Dec-20 15:26 33.822626 -116.504820 50 488ft 0kts
26-Dec-20 15:27 33.822732 -116.504669 46 488ft 6kts
26-Dec-20 15:28 33.825634 -116.506184 323 488ft 15kts
26-Dec-20 15:29 33.828593 -116.508801 317 488ft 16kts
26-Dec-20 15:30 33.833301 -116.513025 321 488ft 23kts
26-Dec-20 15:31 33.837352 -116.516269 332 488ft 11kts
26-Dec-20 15:32 33.839629 -116.517682 39 488ft 0kts
26-Dec-20 15:33 33.839630 -116.517681 39 488ft 0kts
26-Dec-20 15:34 33.839632 -116.517680 39 488ft 0kts
26-Dec-20 15:35 33.839633 -116.517679 39 488ft 0kts
26-Dec-20 15:36 33.839668 -116.517641 42 488ft 4kts
26-Dec-20 15:37 33.831910 -116.509633 142 491ft 109kts
26-Dec-20 15:38 33.814586 -116.479808 111 1720ft 124kts
26-Dec-20 15:39 33.800844 -116.436318 106 2871ft 140kts
26-Dec-20 15:40 33.811435 -116.391320 51 4303ft 154kts
26-Dec-20 15:41 33.835177 -116.349061 75 5589ft 163kts
26-Dec-20 15:42 33.818346 -116.301611 126 7074ft 159kts
26-Dec-20 15:43 33.798827 -116.254199 119 8621ft 155kts
26-Dec-20 15:44 33.775525 -116.263793 265 10148ft 125kts
26-Dec-20 15:45 33.791927 -116.305808 286 11238ft 149kts
26-Dec-20 15:46 33.817493 -116.348997 304 11994ft 172kts
26-Dec-20 15:47 33.849206 -116.397523 303 11998ft 191kts
26-Dec-20 15:48 33.878925 -116.451299 287 12006ft 192kts
26-Dec-20 15:49 33.889522 -116.512716 278 12001ft 188kts
26-Dec-20 15:50 33.906648 -116.572229 281 12009ft 187kts
26-Dec-20 15:51 33.921912 -116.633961 285 12014ft 192kts
26-Dec-20 15:52 33.937372 -116.694977 284 12032ft 188kts
26-Dec-20 15:53 33.944973 -116.755729 258 12053ft 186kts
26-Dec-20 15:54 33.930070 -116.817056 255 12043ft 191kts
26-Dec-20 15:55 33.914859 -116.878263 255 12008ft 189kts
26-Dec-20 15:56 33.902440 -116.939521 258 12006ft 186kts
26-Dec-20 15:57 33.890933 -117.000021 258 12002ft 187kts
26-Dec-20 15:58 33.879438 -117.060943 258 12000ft 187kts
26-Dec-20 15:59 33.868045 -117.120848 257 11997ft 187kts
26-Dec-20 16:00 33.855662 -117.181732 257 11995ft 187kts
26-Dec-20 16:01 33.837310 -117.239702 248 12236ft 173kts
26-Dec-20 16:02 33.809708 -117.296432 238 11111ft 208kts
26-Dec-20 16:03 33.787472 -117.359009 247 9912ft 199kts
26-Dec-20 16:04 33.777671 -117.423982 275 9009ft 198kts
26-Dec-20 16:05 33.781655 -117.489949 270 7841ft 203kts
26-Dec-20 16:06 33.782201 -117.546270 267 8087ft 142kts
26-Dec-20 16:07 33.781285 -117.597826 271 8084ft 165kts
26-Dec-20 16:08 33.810129 -117.644065 318 7322ft 198kts
26-Dec-20 16:09 33.850785 -117.685760 291 6213ft 187kts
26-Dec-20 16:10 33.827734 -117.739053 232 5020ft 180kts
26-Dec-20 16:11 33.792865 -117.786883 230 3148ft 193kts
26-Dec-20 16:12 33.755885 -117.818385 205 2155ft 153kts
26-Dec-20 16:13 33.722034 -117.839297 206 1157ft 135kts
26-Dec-20 16:14 33.692922 -117.857891 209 402ft 105kts
26-Dec-20 16:15 33.672482 -117.870941 205 67ft 38kts
26-Dec-20 16:16 33.669219 -117.871703 129 67ft 0kts
26-Dec-20 16:17 33.670292 -117.869704 40 67ft 17kts
26-Dec-20 16:18 33.673188 -117.867069 46 67ft 7kts
26-Dec-20 16:19 33.673534 -117.864992 95 67ft 7kts
26-Dec-20 16:20 33.673770 -117.864851 301 67ft 0kts
26-Dec-20 16:21 33.673771 -117.864852 301 67ft 0kts
26-Dec-20 16:22 33.673771 -117.864852 301 67ft 0kts

Navigation Log

Ident Type
Flight plan parsing failed, navigation log unavailable